sensor_id;sensor_type;location;lat;lon;timestamp;temperature;humidity
30134;DHT22;16946;49.984;10.672;2023-07-13T00:00:21;22.00;99.90
30134;DHT22;16946;49.984;10.672;2023-07-13T00:00:52;22.00;99.90
30134;DHT22;16946;49.984;10.672;2023-07-13T00:01:23;22.00;99.90
30134;DHT22;16946;49.984;10.672;2023-07-13T00:01:54;22.00;1.00
30134;DHT22;16946;49.984;10.672;2023-07-13T00:02:25;22.00;99.90
30134;DHT22;16946;49.984;10.672;2023-07-13T00:02:57;22.00;99.90
30134;DHT22;16946;49.984;10.672;2023-07-13T00:03:27;22.00;99.90
30134;DHT22;16946;49.984;10.672;2023-07-13T00:03:59;22.00;99.90
30134;DHT22;16946;49.984;10.672;2023-07-13T00:04:29;22.00;99.90
30134;DHT22;16946;49.984;10.672;2023-07-13T00:05:00;22.10;99.90
30134;DHT22;16946;49.984;10.672;2023-07-13T00:05:31;22.10;99.90
30134;DHT22;16946;49.984;10.672;2023-07-13T00:06:02;22.10;99.90
30134;DHT22;16946;49.984;10.672;2023-07-13T00:06:33;22.10;99.90
30134;DHT22;16946;49.984;10.672;2023-07-13T00:07:05;22.00;99.90
30134;DHT22;16946;49.984;10.672;2023-07-13T00:07:36;22.00;99.90
30134;DHT22;16946;49.984;10.672;2023-07-13T00:08:07;22.00;99.90
30134;DHT22;16946;49.984;10.672;2023-07-13T00:08:38;22.00;99.90
30134;DHT22;16946;49.984;10.672;2023-07-13T00:09:09;22.10;99.90
30134;DHT22;16946;49.984;10.672;2023-07-13T00:09:40;22.10;99.90
30134;DHT22;16946;49.984;10.672;2023-07-13T00:10:11;22.10;99.90
30134;DHT22;16946;49.984;10.672;2023-07-13T00:10:42;22.20;99.90
30134;DHT22;16946;49.984;10.672;2023-07-13T00:11:13;22.20;99.90
30134;DHT22;16946;49.984;10.672;2023-07-13T00:11:45;22.20;99.90
30134;DHT22;16946;49.984;10.672;2023-07-13T00:12:27;22.20;99.90
30134;DHT22;16946;49.984;10.672;2023-07-13T00:12:59;22.20;99.90
30134;DHT22;16946;49.984;10.672;2023-07-13T00:13:30;22.20;99.90
30134;DHT22;16946;49.984;10.672;2023-07-13T00:14:01;22.20;99.90
30134;DHT22;16946;49.984;10.672;2023-07-13T00:14:32;22.20;99.90
30134;DHT22;16946;49.984;10.672;2023-07-13T00:15:10;22.20;99.90
30134;DHT22;16946;49.984;10.672;2023-07-13T00:15:42;22.20;99.90
30134;DHT22;16946;49.984;10.672;2023-07-13T00:16:14;22.20;99.90
30134;DHT22;16946;49.984;10.672;2023-07-13T00:16:44;22.20;99.90
30134;DHT22;16946;49.984;10.672;2023-07-13T00:17:16;22.20;99.90
30134;DHT22;16946;49.984;10.672;2023-07-13T00:17:46;22.20;99.90
30134;DHT22;16946;49.984;10.672;2023-07-13T00:18:17;22.20;99.90
30134;DHT22;16946;49.984;10.672;2023-07-13T00:18:48;22.10;99.90
30134;DHT22;16946;49.984;10.672;2023-07-13T00:19:19;22.00;99.90
30134;DHT22;16946;49.984;10.672;2023-07-13T00:19:49;22.00;99.90
30134;DHT22;16946;49.984;10.672;2023-07-13T00:20:22;22.00;99.90
30134;DHT22;16946;49.984;10.672;2023-07-13T00:20:52;21.90;99.90
30134;DHT22;16946;49.984;10.672;2023-07-13T00:21:23;21.90;99.90
30134;DHT22;16946;49.984;10.672;2023-07-13T00:21:53;21.80;99.90
30134;DHT22;16946;49.984;10.672;2023-07-13T00:22:26;21.80;99.90
30134;DHT22;16946;49.984;10.672;2023-07-13T00:22:56;21.70;99.90
30134;DHT22;16946;49.984;10.672;2023-07-13T00:23:27;21.70;1.00
30134;DHT22;16946;49.984;10.672;2023-07-13T00:23:58;21.70;1.00
30134;DHT22;16946;49.984;10.672;2023-07-13T00:24:28;21.70;1.00
30134;DHT22;16946;49.984;10.672;2023-07-13T00:24:59;21.70;1.00
30134;DHT22;16946;49.984;10.672;2023-07-13T00:25:29;21.70;29.60
30134;DHT22;16946;49.984;10.672;2023-07-13T00:26:02;21.70;20.60
30134;DHT22;16946;49.984;10.672;2023-07-13T00:26:32;21.70;10.30
30134;DHT22;16946;49.984;10.672;2023-07-13T00:27:03;21.70;19.30
30134;DHT22;16946;49.984;10.672;2023-07-13T00:27:34;21.70;62.30
30134;DHT22;16946;49.984;10.672;2023-07-13T00:28:04;21.70;94.40
30134;DHT22;16946;49.984;10.672;2023-07-13T00:28:35;21.70;65.90
30134;DHT22;16946;49.984;10.672;2023-07-13T00:29:06;21.70;78.80
30134;DHT22;16946;49.984;10.672;2023-07-13T00:29:39;21.70;82.40
30134;DHT22;16946;49.984;10.672;2023-07-13T00:30:10;21.70;83.20
30134;DHT22;16946;49.984;10.672;2023-07-13T00:30:41;21.70;61.70
30134;DHT22;16946;49.984;10.672;2023-07-13T00:31:13;21.70;93.30
30134;DHT22;16946;49.984;10.672;2023-07-13T00:31:44;21.70;93.60
30134;DHT22;16946;49.984;10.672;2023-07-13T00:32:16;21.70;93.40
30134;DHT22;16946;49.984;10.672;2023-07-13T00:32:47;21.70;99.90
30134;DHT22;16946;49.984;10.672;2023-07-13T00:33:17;21.70;99.90
30134;DHT22;16946;49.984;10.672;2023-07-13T00:33:48;21.60;99.90
30134;DHT22;16946;49.984;10.672;2023-07-13T00:34:18;21.60;99.90
30134;DHT22;16946;49.984;10.672;2023-07-13T00:34:49;21.40;99.90
30134;DHT22;16946;49.984;10.672;2023-07-13T00:35:19;21.30;99.90
30134;DHT22;16946;49.984;10.672;2023-07-13T00:35:50;21.30;99.90
30134;DHT22;16946;49.984;10.672;2023-07-13T00:36:20;21.20;99.90
30134;DHT22;16946;49.984;10.672;2023-07-13T00:36:51;21.20;99.90
30134;DHT22;16946;49.984;10.672;2023-07-13T00:37:21;21.10;99.90
30134;DHT22;16946;49.984;10.672;2023-07-13T00:37:52;21.10;99.90
30134;DHT22;16946;49.984;10.672;2023-07-13T00:38:23;21.20;99.90
30134;DHT22;16946;49.984;10.672;2023-07-13T00:38:54;21.10;99.90
30134;DHT22;16946;49.984;10.672;2023-07-13T00:39:25;21.10;99.90
30134;DHT22;16946;49.984;10.672;2023-07-13T00:39:55;21.10;99.90
30134;DHT22;16946;49.984;10.672;2023-07-13T00:40:26;21.00;1.00
30134;DHT22;16946;49.984;10.672;2023-07-13T00:40:56;21.00;1.00
30134;DHT22;16946;49.984;10.672;2023-07-13T00:41:27;21.00;1.00
30134;DHT22;16946;49.984;10.672;2023-07-13T00:41:58;21.00;1.00
30134;DHT22;16946;49.984;10.672;2023-07-13T00:42:28;21.00;1.00
30134;DHT22;16946;49.984;10.672;2023-07-13T00:42:59;21.00;1.00
30134;DHT22;16946;49.984;10.672;2023-07-13T00:43:30;21.00;1.00
30134;DHT22;16946;49.984;10.672;2023-07-13T00:44:01;20.90;1.00
30134;DHT22;16946;49.984;10.672;2023-07-13T00:44:33;20.90;5.80
30134;DHT22;16946;49.984;10.672;2023-07-13T00:46:18;20.80;41.20
30134;DHT22;16946;49.984;10.672;2023-07-13T00:46:49;20.70;60.40
30134;DHT22;16946;49.984;10.672;2023-07-13T00:47:19;20.70;83.30
30134;DHT22;16946;49.984;10.672;2023-07-13T00:47:50;20.70;84.00
30134;DHT22;16946;49.984;10.672;2023-07-13T00:48:23;20.70;96.70
30134;DHT22;16946;49.984;10.672;2023-07-13T00:49:02;20.70;99.90
30134;DHT22;16946;49.984;10.672;2023-07-13T00:49:35;20.70;99.90
30134;DHT22;16946;49.984;10.672;2023-07-13T00:50:09;20.70;99.90
30134;DHT22;16946;49.984;10.672;2023-07-13T00:50:41;20.80;98.20
30134;DHT22;16946;49.984;10.672;2023-07-13T00:51:13;20.70;99.80
30134;DHT22;16946;49.984;10.672;2023-07-13T00:51:48;20.70;99.90
30134;DHT22;16946;49.984;10.672;2023-07-13T00:52:19;20.60;99.90
30134;DHT22;16946;49.984;10.672;2023-07-13T00:52:53;20.60;99.90
30134;DHT22;16946;49.984;10.672;2023-07-13T00:53:25;20.60;99.90
30134;DHT22;16946;49.984;10.672;2023-07-13T00:53:58;20.60;99.90
30134;DHT22;16946;49.984;10.672;2023-07-13T00:54:39;20.60;99.90
30134;DHT22;16946;49.984;10.672;2023-07-13T00:55:12;20.70;99.90
30134;DHT22;16946;49.984;10.672;2023-07-13T00:55:43;20.70;99.90
30134;DHT22;16946;49.984;10.672;2023-07-13T00:56:14;20.80;99.90
30134;DHT22;16946;49.984;10.672;2023-07-13T00:56:47;20.80;99.90
30134;DHT22;16946;49.984;10.672;2023-07-13T00:57:20;20.80;99.90
30134;DHT22;16946;49.984;10.672;2023-07-13T00:57:50;20.80;99.90
30134;DHT22;16946;49.984;10.672;2023-07-13T00:58:21;20.80;99.90
30134;DHT22;16946;49.984;10.672;2023-07-13T00:58:53;20.80;99.90
30134;DHT22;16946;49.984;10.672;2023-07-13T00:59:24;20.70;99.90
30134;DHT22;16946;49.984;10.672;2023-07-13T00:59:58;20.70;99.90
30134;DHT22;16946;49.984;10.672;2023-07-13T01:00:29;20.70;99.90
30134;DHT22;16946;49.984;10.672;2023-07-13T01:01:00;20.70;99.90
30134;DHT22;16946;49.984;10.672;2023-07-13T01:01:31;20.70;99.90
30134;DHT22;16946;49.984;10.672;2023-07-13T01:02:02;20.60;99.90
30134;DHT22;16946;49.984;10.672;2023-07-13T01:02:34;20.60;99.90
30134;DHT22;16946;49.984;10.672;2023-07-13T01:03:05;20.60;99.90
30134;DHT22;16946;49.984;10.672;2023-07-13T01:03:36;20.50;99.90
30134;DHT22;16946;49.984;10.672;2023-07-13T01:04:07;20.40;99.90
30134;DHT22;16946;49.984;10.672;2023-07-13T01:04:38;20.40;99.90
30134;DHT22;16946;49.984;10.672;2023-07-13T01:05:18;20.40;99.90
30134;DHT22;16946;49.984;10.672;2023-07-13T01:05:50;20.30;99.90
30134;DHT22;16946;49.984;10.672;2023-07-13T01:06:21;20.40;99.90
30134;DHT22;16946;49.984;10.672;2023-07-13T01:06:52;20.40;99.90
30134;DHT22;16946;49.984;10.672;2023-07-13T01:07:23;20.30;99.90
30134;DHT22;16946;49.984;10.672;2023-07-13T01:07:54;20.20;99.90
30134;DHT22;16946;49.984;10.672;2023-07-13T01:08:26;20.20;99.90
30134;DHT22;16946;49.984;10.672;2023-07-13T01:08:57;20.10;99.90
30134;DHT22;16946;49.984;10.672;2023-07-13T01:09:28;20.10;99.90
30134;DHT22;16946;49.984;10.672;2023-07-13T01:09:59;20.10;99.90
30134;DHT22;16946;49.984;10.672;2023-07-13T01:10:29;20.10;99.90
30134;DHT22;16946;49.984;10.672;2023-07-13T01:11:09;20.00;99.90
30134;DHT22;16946;49.984;10.672;2023-07-13T01:11:40;20.10;99.90
30134;DHT22;16946;49.984;10.672;2023-07-13T01:12:11;20.10;99.90
30134;DHT22;16946;49.984;10.672;2023-07-13T01:12:44;20.10;99.90
30134;DHT22;16946;49.984;10.672;2023-07-13T01:13:14;20.10;99.90
30134;DHT22;16946;49.984;10.672;2023-07-13T01:13:45;20.10;99.90
30134;DHT22;16946;49.984;10.672;2023-07-13T01:14:15;20.00;99.90
30134;DHT22;16946;49.984;10.672;2023-07-13T01:14:46;20.00;99.90
30134;DHT22;16946;49.984;10.672;2023-07-13T01:15:56;20.00;99.90
30134;DHT22;16946;49.984;10.672;2023-07-13T01:16:33;19.90;99.90
30134;DHT22;16946;49.984;10.672;2023-07-13T01:17:04;19.90;99.90
30134;DHT22;16946;49.984;10.672;2023-07-13T01:17:35;19.90;99.90
30134;DHT22;16946;49.984;10.672;2023-07-13T01:18:18;19.90;99.90
30134;DHT22;16946;49.984;10.672;2023-07-13T01:18:49;19.90;99.90
30134;DHT22;16946;49.984;10.672;2023-07-13T01:19:29;19.90;99.90
30134;DHT22;16946;49.984;10.672;2023-07-13T01:20:06;19.90;99.90
30134;DHT22;16946;49.984;10.672;2023-07-13T01:20:39;19.90;99.90
30134;DHT22;16946;49.984;10.672;2023-07-13T01:21:10;19.90;99.90
30134;DHT22;16946;49.984;10.672;2023-07-13T01:21:40;19.90;99.90
30134;DHT22;16946;49.984;10.672;2023-07-13T01:22:16;19.90;99.90
30134;DHT22;16946;49.984;10.672;2023-07-13T01:22:47;19.90;99.90
30134;DHT22;16946;49.984;10.672;2023-07-13T01:23:17;19.90;99.90
30134;DHT22;16946;49.984;10.672;2023-07-13T01:23:48;19.90;99.90
30134;DHT22;16946;49.984;10.672;2023-07-13T01:24:19;19.90;99.90
30134;DHT22;16946;49.984;10.672;2023-07-13T01:24:49;19.90;99.90
30134;DHT22;16946;49.984;10.672;2023-07-13T01:25:20;19.90;99.90
30134;DHT22;16946;49.984;10.672;2023-07-13T01:25:52;19.80;99.90
30134;DHT22;16946;49.984;10.672;2023-07-13T01:26:22;19.80;99.90
30134;DHT22;16946;49.984;10.672;2023-07-13T01:26:53;19.80;99.90
30134;DHT22;16946;49.984;10.672;2023-07-13T01:27:25;19.70;99.90
30134;DHT22;16946;49.984;10.672;2023-07-13T01:27:56;19.80;99.90
30134;DHT22;16946;49.984;10.672;2023-07-13T01:28:27;19.70;99.90
30134;DHT22;16946;49.984;10.672;2023-07-13T01:28:58;19.70;99.90
30134;DHT22;16946;49.984;10.672;2023-07-13T01:29:29;19.70;99.90
30134;DHT22;16946;49.984;10.672;2023-07-13T01:30:00;19.70;99.90
30134;DHT22;16946;49.984;10.672;2023-07-13T01:30:35;19.80;99.90
30134;DHT22;16946;49.984;10.672;2023-07-13T01:31:06;19.80;99.90
30134;DHT22;16946;49.984;10.672;2023-07-13T01:31:38;19.80;99.90
30134;DHT22;16946;49.984;10.672;2023-07-13T01:32:11;19.80;99.90
30134;DHT22;16946;49.984;10.672;2023-07-13T01:32:42;19.80;99.90
30134;DHT22;16946;49.984;10.672;2023-07-13T01:33:15;19.70;99.90
30134;DHT22;16946;49.984;10.672;2023-07-13T01:33:46;19.70;99.90
30134;DHT22;16946;49.984;10.672;2023-07-13T01:34:17;19.70;99.90
30134;DHT22;16946;49.984;10.672;2023-07-13T01:34:48;19.60;99.90
30134;DHT22;16946;49.984;10.672;2023-07-13T01:35:18;19.60;99.90
30134;DHT22;16946;49.984;10.672;2023-07-13T01:35:49;19.60;99.90
30134;DHT22;16946;49.984;10.672;2023-07-13T01:36:19;19.50;99.90
30134;DHT22;16946;49.984;10.672;2023-07-13T01:36:51;19.50;99.90
30134;DHT22;16946;49.984;10.672;2023-07-13T01:37:25;19.50;99.90
30134;DHT22;16946;49.984;10.672;2023-07-13T01:37:55;19.50;99.90
30134;DHT22;16946;49.984;10.672;2023-07-13T01:38:27;19.50;99.90
30134;DHT22;16946;49.984;10.672;2023-07-13T01:38:58;19.50;99.90
30134;DHT22;16946;49.984;10.672;2023-07-13T01:39:28;19.50;99.90
30134;DHT22;16946;49.984;10.672;2023-07-13T01:39:59;19.50;99.90
30134;DHT22;16946;49.984;10.672;2023-07-13T01:40:30;19.40;99.90
30134;DHT22;16946;49.984;10.672;2023-07-13T01:41:01;19.40;99.90
30134;DHT22;16946;49.984;10.672;2023-07-13T01:41:32;19.40;99.90
30134;DHT22;16946;49.984;10.672;2023-07-13T01:42:03;19.40;99.90
30134;DHT22;16946;49.984;10.672;2023-07-13T01:42:34;19.40;99.90
30134;DHT22;16946;49.984;10.672;2023-07-13T01:43:05;19.40;99.90
30134;DHT22;16946;49.984;10.672;2023-07-13T01:43:35;19.50;99.90
30134;DHT22;16946;49.984;10.672;2023-07-13T01:44:06;19.50;99.90
30134;DHT22;16946;49.984;10.672;2023-07-13T01:44:37;19.50;99.90
30134;DHT22;16946;49.984;10.672;2023-07-13T01:45:07;19.60;99.90
30134;DHT22;16946;49.984;10.672;2023-07-13T01:45:38;19.60;99.90
30134;DHT22;16946;49.984;10.672;2023-07-13T01:46:08;19.60;99.90
30134;DHT22;16946;49.984;10.672;2023-07-13T01:46:39;19.60;99.90
30134;DHT22;16946;49.984;10.672;2023-07-13T01:47:10;19.60;99.90
30134;DHT22;16946;49.984;10.672;2023-07-13T01:47:40;19.50;99.90
30134;DHT22;16946;49.984;10.672;2023-07-13T01:48:11;19.60;99.90
30134;DHT22;16946;49.984;10.672;2023-07-13T01:48:42;19.50;99.90
30134;DHT22;16946;49.984;10.672;2023-07-13T01:49:12;19.50;99.90
30134;DHT22;16946;49.984;10.672;2023-07-13T01:49:43;19.50;99.90
30134;DHT22;16946;49.984;10.672;2023-07-13T01:50:16;19.50;99.90
30134;DHT22;16946;49.984;10.672;2023-07-13T01:50:47;19.50;99.90
30134;DHT22;16946;49.984;10.672;2023-07-13T01:51:20;19.40;99.90
30134;DHT22;16946;49.984;10.672;2023-07-13T01:51:51;19.40;99.90
30134;DHT22;16946;49.984;10.672;2023-07-13T01:52:21;19.40;99.90
30134;DHT22;16946;49.984;10.672;2023-07-13T01:52:52;19.40;99.90
30134;DHT22;16946;49.984;10.672;2023-07-13T01:53:23;19.50;99.90
30134;DHT22;16946;49.984;10.672;2023-07-13T01:53:53;19.50;99.90
30134;DHT22;16946;49.984;10.672;2023-07-13T01:54:24;19.50;99.90
30134;DHT22;16946;49.984;10.672;2023-07-13T01:54:54;19.50;99.90
30134;DHT22;16946;49.984;10.672;2023-07-13T01:55:25;19.50;99.90
30134;DHT22;16946;49.984;10.672;2023-07-13T01:55:55;19.40;99.90
30134;DHT22;16946;49.984;10.672;2023-07-13T01:56:26;19.30;99.90
30134;DHT22;16946;49.984;10.672;2023-07-13T01:56:56;19.20;99.90
30134;DHT22;16946;49.984;10.672;2023-07-13T01:57:27;19.20;99.90
30134;DHT22;16946;49.984;10.672;2023-07-13T01:57:58;19.20;99.90
30134;DHT22;16946;49.984;10.672;2023-07-13T01:58:28;19.10;99.90
30134;DHT22;16946;49.984;10.672;2023-07-13T01:58:59;19.10;99.90
30134;DHT22;16946;49.984;10.672;2023-07-13T01:59:30;19.00;99.90
30134;DHT22;16946;49.984;10.672;2023-07-13T02:00:03;19.00;1.00
30134;DHT22;16946;49.984;10.672;2023-07-13T02:00:35;19.00;1.00
30134;DHT22;16946;49.984;10.672;2023-07-13T02:01:05;19.00;1.00
30134;DHT22;16946;49.984;10.672;2023-07-13T02:01:36;19.00;1.00
30134;DHT22;16946;49.984;10.672;2023-07-13T02:02:06;19.00;1.00
30134;DHT22;16946;49.984;10.672;2023-07-13T02:02:37;19.00;1.00
30134;DHT22;16946;49.984;10.672;2023-07-13T02:03:08;19.00;1.00
30134;DHT22;16946;49.984;10.672;2023-07-13T02:03:38;19.00;1.00
30134;DHT22;16946;49.984;10.672;2023-07-13T02:04:09;19.00;1.00
30134;DHT22;16946;49.984;10.672;2023-07-13T02:04:39;19.00;1.00
30134;DHT22;16946;49.984;10.672;2023-07-13T02:05:11;19.00;1.00
30134;DHT22;16946;49.984;10.672;2023-07-13T02:05:41;19.00;1.00
30134;DHT22;16946;49.984;10.672;2023-07-13T02:06:12;19.00;99.90
30134;DHT22;16946;49.984;10.672;2023-07-13T02:06:43;19.00;1.00
30134;DHT22;16946;49.984;10.672;2023-07-13T02:07:13;19.00;1.00
30134;DHT22;16946;49.984;10.672;2023-07-13T02:07:45;19.00;1.00
30134;DHT22;16946;49.984;10.672;2023-07-13T02:08:16;19.10;99.90
30134;DHT22;16946;49.984;10.672;2023-07-13T02:08:46;19.10;99.90
30134;DHT22;16946;49.984;10.672;2023-07-13T02:09:16;19.10;99.90
30134;DHT22;16946;49.984;10.672;2023-07-13T02:09:47;19.10;99.90
30134;DHT22;16946;49.984;10.672;2023-07-13T02:10:18;19.10;99.90
30134;DHT22;16946;49.984;10.672;2023-07-13T02:10:48;19.10;99.90
30134;DHT22;16946;49.984;10.672;2023-07-13T02:11:19;19.00;99.90
30134;DHT22;16946;49.984;10.672;2023-07-13T02:11:49;19.00;1.00
30134;DHT22;16946;49.984;10.672;2023-07-13T02:12:20;18.90;1.00
30134;DHT22;16946;49.984;10.672;2023-07-13T02:12:51;18.90;1.00
30134;DHT22;16946;49.984;10.672;2023-07-13T02:13:21;18.90;1.00
30134;DHT22;16946;49.984;10.672;2023-07-13T02:13:52;18.80;1.00
30134;DHT22;16946;49.984;10.672;2023-07-13T02:14:22;18.80;1.00
30134;DHT22;16946;49.984;10.672;2023-07-13T02:14:53;18.80;1.00
30134;DHT22;16946;49.984;10.672;2023-07-13T02:15:23;18.80;1.00
30134;DHT22;16946;49.984;10.672;2023-07-13T02:15:55;18.80;1.00
30134;DHT22;16946;49.984;10.672;2023-07-13T02:16:25;18.70;1.00
30134;DHT22;16946;49.984;10.672;2023-07-13T02:16:56;18.70;1.00
30134;DHT22;16946;49.984;10.672;2023-07-13T02:17:26;18.70;1.00
30134;DHT22;16946;49.984;10.672;2023-07-13T02:17:57;18.70;1.00
30134;DHT22;16946;49.984;10.672;2023-07-13T02:18:28;18.70;1.00
30134;DHT22;16946;49.984;10.672;2023-07-13T02:18:59;18.70;1.00
30134;DHT22;16946;49.984;10.672;2023-07-13T02:19:30;18.80;1.00
30134;DHT22;16946;49.984;10.672;2023-07-13T02:20:02;18.80;1.00
30134;DHT22;16946;49.984;10.672;2023-07-13T02:20:33;18.80;1.00
30134;DHT22;16946;49.984;10.672;2023-07-13T02:21:04;18.70;1.00
30134;DHT22;16946;49.984;10.672;2023-07-13T02:21:34;18.70;1.00
30134;DHT22;16946;49.984;10.672;2023-07-13T02:22:05;18.70;1.00
30134;DHT22;16946;49.984;10.672;2023-07-13T02:22:35;18.70;1.00
30134;DHT22;16946;49.984;10.672;2023-07-13T02:23:06;18.70;1.00
30134;DHT22;16946;49.984;10.672;2023-07-13T02:23:37;18.70;1.00
30134;DHT22;16946;49.984;10.672;2023-07-13T02:24:07;18.70;1.00
30134;DHT22;16946;49.984;10.672;2023-07-13T02:24:38;18.70;1.00
30134;DHT22;16946;49.984;10.672;2023-07-13T02:25:08;18.70;1.00
30134;DHT22;16946;49.984;10.672;2023-07-13T02:25:39;18.70;1.00
30134;DHT22;16946;49.984;10.672;2023-07-13T02:26:10;18.60;1.00
30134;DHT22;16946;49.984;10.672;2023-07-13T02:26:40;18.60;1.00
30134;DHT22;16946;49.984;10.672;2023-07-13T02:27:11;18.60;1.00
30134;DHT22;16946;49.984;10.672;2023-07-13T02:27:41;18.60;1.00
30134;DHT22;16946;49.984;10.672;2023-07-13T02:28:12;18.60;1.00
30134;DHT22;16946;49.984;10.672;2023-07-13T02:28:42;18.60;1.00
30134;DHT22;16946;49.984;10.672;2023-07-13T02:29:13;18.50;1.00
30134;DHT22;16946;49.984;10.672;2023-07-13T02:29:43;18.50;1.00
30134;DHT22;16946;49.984;10.672;2023-07-13T02:30:14;18.40;1.00
30134;DHT22;16946;49.984;10.672;2023-07-13T02:30:44;18.40;1.00
30134;DHT22;16946;49.984;10.672;2023-07-13T02:31:16;18.40;1.00
30134;DHT22;16946;49.984;10.672;2023-07-13T02:31:46;18.30;1.00
30134;DHT22;16946;49.984;10.672;2023-07-13T02:32:17;18.30;1.00
30134;DHT22;16946;49.984;10.672;2023-07-13T02:32:48;18.30;1.00
30134;DHT22;16946;49.984;10.672;2023-07-13T02:33:18;18.20;1.00
30134;DHT22;16946;49.984;10.672;2023-07-13T02:33:49;18.20;1.00
30134;DHT22;16946;49.984;10.672;2023-07-13T02:34:20;18.20;1.00
30134;DHT22;16946;49.984;10.672;2023-07-13T02:34:50;18.20;1.00
30134;DHT22;16946;49.984;10.672;2023-07-13T02:35:21;18.20;1.00
30134;DHT22;16946;49.984;10.672;2023-07-13T02:35:51;18.20;1.00
30134;DHT22;16946;49.984;10.672;2023-07-13T02:36:22;18.20;1.00
30134;DHT22;16946;49.984;10.672;2023-07-13T02:36:53;18.20;1.00
30134;DHT22;16946;49.984;10.672;2023-07-13T02:37:23;18.20;1.00
30134;DHT22;16946;49.984;10.672;2023-07-13T02:37:54;18.20;1.00
30134;DHT22;16946;49.984;10.672;2023-07-13T02:38:24;18.20;1.00
30134;DHT22;16946;49.984;10.672;2023-07-13T02:38:55;18.20;1.00
30134;DHT22;16946;49.984;10.672;2023-07-13T02:39:25;18.20;1.00
30134;DHT22;16946;49.984;10.672;2023-07-13T02:39:56;18.20;1.00
30134;DHT22;16946;49.984;10.672;2023-07-13T02:40:27;18.20;1.00
30134;DHT22;16946;49.984;10.672;2023-07-13T02:40:57;18.20;1.00
30134;DHT22;16946;49.984;10.672;2023-07-13T02:41:28;18.20;1.00
30134;DHT22;16946;49.984;10.672;2023-07-13T02:41:59;18.20;1.00
30134;DHT22;16946;49.984;10.672;2023-07-13T02:42:30;18.30;1.00
30134;DHT22;16946;49.984;10.672;2023-07-13T02:43:01;18.30;1.00
30134;DHT22;16946;49.984;10.672;2023-07-13T02:43:32;18.30;1.00
30134;DHT22;16946;49.984;10.672;2023-07-13T02:44:03;18.30;1.00
30134;DHT22;16946;49.984;10.672;2023-07-13T02:44:34;18.30;1.00
30134;DHT22;16946;49.984;10.672;2023-07-13T02:45:05;18.30;1.00
30134;DHT22;16946;49.984;10.672;2023-07-13T02:45:36;18.40;1.00
30134;DHT22;16946;49.984;10.672;2023-07-13T02:46:06;18.40;1.00
30134;DHT22;16946;49.984;10.672;2023-07-13T02:46:37;18.40;1.00
30134;DHT22;16946;49.984;10.672;2023-07-13T02:47:08;18.40;1.00
30134;DHT22;16946;49.984;10.672;2023-07-13T02:47:41;18.30;1.00
30134;DHT22;16946;49.984;10.672;2023-07-13T02:48:13;18.20;1.00
30134;DHT22;16946;49.984;10.672;2023-07-13T02:48:44;18.30;1.00
30134;DHT22;16946;49.984;10.672;2023-07-13T02:49:14;18.20;1.00
30134;DHT22;16946;49.984;10.672;2023-07-13T02:49:45;18.20;1.00
30134;DHT22;16946;49.984;10.672;2023-07-13T02:50:16;18.20;1.00
30134;DHT22;16946;49.984;10.672;2023-07-13T02:50:46;18.10;1.00
30134;DHT22;16946;49.984;10.672;2023-07-13T02:51:17;18.10;1.00
30134;DHT22;16946;49.984;10.672;2023-07-13T02:51:47;18.10;1.00
30134;DHT22;16946;49.984;10.672;2023-07-13T02:52:18;18.00;1.00
30134;DHT22;16946;49.984;10.672;2023-07-13T02:52:49;18.00;1.00
30134;DHT22;16946;49.984;10.672;2023-07-13T02:53:19;18.00;1.00
30134;DHT22;16946;49.984;10.672;2023-07-13T02:53:49;17.90;1.00
30134;DHT22;16946;49.984;10.672;2023-07-13T02:54:20;17.90;1.00
30134;DHT22;16946;49.984;10.672;2023-07-13T02:54:51;17.90;1.00
30134;DHT22;16946;49.984;10.672;2023-07-13T02:55:21;17.80;3.30
30134;DHT22;16946;49.984;10.672;2023-07-13T02:55:52;17.80;4.80
30134;DHT22;16946;49.984;10.672;2023-07-13T02:56:24;17.70;7.80
30134;DHT22;16946;49.984;10.672;2023-07-13T02:56:55;17.70;9.30
30134;DHT22;16946;49.984;10.672;2023-07-13T02:57:26;17.70;11.00
30134;DHT22;16946;49.984;10.672;2023-07-13T02:57:58;17.70;10.30
30134;DHT22;16946;49.984;10.672;2023-07-13T02:58:28;17.70;10.60
30134;DHT22;16946;49.984;10.672;2023-07-13T02:58:59;17.70;10.80
30134;DHT22;16946;49.984;10.672;2023-07-13T02:59:30;17.80;7.50
30134;DHT22;16946;49.984;10.672;2023-07-13T03:00:02;17.80;5.40
30134;DHT22;16946;49.984;10.672;2023-07-13T03:00:38;17.80;1.20
30134;DHT22;16946;49.984;10.672;2023-07-13T03:01:11;17.90;1.00
30134;DHT22;16946;49.984;10.672;2023-07-13T03:01:42;17.90;1.00
30134;DHT22;16946;49.984;10.672;2023-07-13T03:02:12;17.90;1.00
30134;DHT22;16946;49.984;10.672;2023-07-13T03:02:43;17.90;1.00
30134;DHT22;16946;49.984;10.672;2023-07-13T03:03:14;17.90;1.00
30134;DHT22;16946;49.984;10.672;2023-07-13T03:03:45;17.90;1.00
30134;DHT22;16946;49.984;10.672;2023-07-13T03:04:16;17.90;1.00
30134;DHT22;16946;49.984;10.672;2023-07-13T03:04:49;17.80;1.00
30134;DHT22;16946;49.984;10.672;2023-07-13T03:05:20;17.80;1.00
30134;DHT22;16946;49.984;10.672;2023-07-13T03:05:59;17.80;1.00
30134;DHT22;16946;49.984;10.672;2023-07-13T03:06:31;17.70;1.00
30134;DHT22;16946;49.984;10.672;2023-07-13T03:07:03;17.70;1.00
30134;DHT22;16946;49.984;10.672;2023-07-13T03:07:34;17.60;1.00
30134;DHT22;16946;49.984;10.672;2023-07-13T03:08:05;17.60;2.40
30134;DHT22;16946;49.984;10.672;2023-07-13T03:08:36;17.50;2.60
30134;DHT22;16946;49.984;10.672;2023-07-13T03:09:07;17.50;5.00
30134;DHT22;16946;49.984;10.672;2023-07-13T03:09:39;17.50;5.60
30134;DHT22;16946;49.984;10.672;2023-07-13T03:10:09;17.50;5.70
30134;DHT22;16946;49.984;10.672;2023-07-13T03:10:40;17.40;4.30
30134;DHT22;16946;49.984;10.672;2023-07-13T03:11:14;17.40;4.60
30134;DHT22;16946;49.984;10.672;2023-07-13T03:11:45;17.40;4.70
30134;DHT22;16946;49.984;10.672;2023-07-13T03:12:15;17.40;5.30
30134;DHT22;16946;49.984;10.672;2023-07-13T03:12:46;17.40;7.00
30134;DHT22;16946;49.984;10.672;2023-07-13T03:13:16;17.40;2.90
30134;DHT22;16946;49.984;10.672;2023-07-13T03:13:47;17.40;2.60
30134;DHT22;16946;49.984;10.672;2023-07-13T03:14:18;17.40;5.00
30134;DHT22;16946;49.984;10.672;2023-07-13T03:14:49;17.40;3.20
30134;DHT22;16946;49.984;10.672;2023-07-13T03:15:19;17.50;1.00
30134;DHT22;16946;49.984;10.672;2023-07-13T03:15:50;17.50;1.00
30134;DHT22;16946;49.984;10.672;2023-07-13T03:16:20;17.60;1.00
30134;DHT22;16946;49.984;10.672;2023-07-13T03:16:51;17.70;1.00
30134;DHT22;16946;49.984;10.672;2023-07-13T03:17:22;17.70;1.00
30134;DHT22;16946;49.984;10.672;2023-07-13T03:17:52;17.70;1.00